createdAt,value
2022-11-17T00:00:07.299Z,-1.80
2022-11-17T00:02:37.987Z,-1.81
2022-11-17T00:05:06.730Z,-1.88
2022-11-17T00:07:38.134Z,-1.90
2022-11-17T00:10:08.413Z,-1.84
2022-11-17T00:12:55.828Z,-1.76
2022-11-17T00:15:25.420Z,-1.64
2022-11-17T00:21:17.416Z,-1.69
2022-11-17T00:23:49.167Z,-1.57
2022-11-17T00:26:18.407Z,-1.56
2022-11-17T00:28:48.193Z,-1.67
2022-11-17T00:31:34.407Z,-1.74
2022-11-17T00:34:09.284Z,-1.80
2022-11-17T00:36:39.209Z,-1.70
2022-11-17T00:39:08.705Z,-1.64
2022-11-17T00:41:38.659Z,-1.66
2022-11-17T00:44:07.654Z,-1.61
2022-11-17T00:46:37.737Z,-1.60
2022-11-17T00:49:08.631Z,-1.57
2022-11-17T00:51:39.212Z,-1.55
2022-11-17T00:54:08.295Z,-1.69
2022-11-17T00:56:36.360Z,-1.65
2022-11-17T00:59:05.562Z,-1.85
2022-11-17T01:01:34.615Z,-1.91
2022-11-17T01:04:04.628Z,-1.78
2022-11-17T01:06:37.044Z,-1.69
2022-11-17T01:09:08.913Z,-1.63
2022-11-17T01:11:38.296Z,-1.64
2022-11-17T01:14:06.872Z,-1.61
2022-11-17T01:16:35.281Z,-1.64
2022-11-17T01:19:04.068Z,-1.54
2022-11-17T01:21:33.187Z,-1.52
2022-11-17T01:24:03.843Z,-1.57
2022-11-17T01:26:33.556Z,-1.52
2022-11-17T01:29:02.384Z,-1.44
2022-11-17T01:31:32.185Z,-1.39
2022-11-17T01:34:01.052Z,-1.37
2022-11-17T01:36:30.671Z,-1.41
2022-11-17T01:38:59.032Z,-1.36
2022-11-17T01:41:29.794Z,-1.40
2022-11-17T01:43:59.468Z,-1.47
2022-11-17T01:46:34.299Z,-1.40
2022-11-17T01:49:05.865Z,-1.36
2022-11-17T01:51:36.999Z,-1.43
2022-11-17T01:54:06.485Z,-1.35
2022-11-17T01:56:40.405Z,-1.38
2022-11-17T01:59:11.771Z,-1.42
2022-11-17T02:01:55.966Z,-1.40
2022-11-17T02:04:26.325Z,-1.37
2022-11-17T02:06:58.256Z,-1.41
2022-11-17T02:09:27.762Z,-1.38
2022-11-17T02:12:00.573Z,-1.38
2022-11-17T02:14:30.132Z,-1.39
2022-11-17T02:17:07.033Z,-1.39
2022-11-17T02:19:40.089Z,-1.51
2022-11-17T02:22:22.423Z,-1.51
2022-11-17T02:25:07.191Z,-1.46
2022-11-17T02:28:02.600Z,-1.42
2022-11-17T02:30:33.591Z,-1.38
2022-11-17T02:33:05.166Z,-1.50
2022-11-17T02:35:38.584Z,-1.40
2022-11-17T02:38:13.398Z,-1.50
2022-11-17T02:40:44.684Z,-1.48
2022-11-17T02:43:33.326Z,-1.54
2022-11-17T02:46:04.874Z,-1.58
2022-11-17T02:48:35.149Z,-1.66
2022-11-17T02:51:05.009Z,-1.78
2022-11-17T02:53:34.740Z,-1.74
2022-11-17T02:56:04.650Z,-1.64
2022-11-17T02:58:35.505Z,-1.53
2022-11-17T03:01:12.419Z,-1.42
2022-11-17T03:03:47.854Z,-1.36
2022-11-17T03:06:21.968Z,-1.34
2022-11-17T03:08:54.698Z,-1.29
2022-11-17T03:11:25.955Z,-1.25
2022-11-17T03:13:58.717Z,-1.19
2022-11-17T03:16:29.152Z,-1.13
2022-11-17T03:19:07.994Z,-1.11
2022-11-17T03:21:38.967Z,-1.08
2022-11-17T03:27:15.626Z,-1.09
2022-11-17T03:29:49.822Z,-1.09
2022-11-17T03:32:20.094Z,-1.06
2022-11-17T03:34:52.117Z,-1.06
2022-11-17T03:37:21.844Z,-1.06
2022-11-17T03:39:53.274Z,-1.05
2022-11-17T03:42:25.622Z,-1.04
2022-11-17T03:45:05.508Z,-1.02
2022-11-17T03:47:55.248Z,-1.01
2022-11-17T03:50:27.491Z,-0.99
2022-11-17T03:52:57.016Z,-0.98
2022-11-17T03:55:29.696Z,-0.97
2022-11-17T03:58:02.305Z,-0.98
2022-11-17T04:00:34.335Z,-0.96
2022-11-17T04:03:02.704Z,-0.96
2022-11-17T04:05:31.679Z,-0.98
2022-11-17T04:08:00.621Z,-0.99
2022-11-17T04:10:29.837Z,-0.98
2022-11-17T04:13:15.941Z,-0.97
2022-11-17T04:16:00.025Z,-1.00
2022-11-17T04:18:28.512Z,-1.06
2022-11-17T04:20:58.366Z,-1.07
2022-11-17T04:23:27.477Z,-1.12
2022-11-17T04:26:14.594Z,-1.13
2022-11-17T04:28:44.930Z,-1.20
2022-11-17T04:31:17.680Z,-1.26
2022-11-17T04:33:47.704Z,-1.27
2022-11-17T04:36:17.612Z,-1.28
2022-11-17T04:38:47.506Z,-1.26
2022-11-17T04:41:34.290Z,-1.24
2022-11-17T04:44:03.317Z,-1.25
2022-11-17T04:46:35.135Z,-1.21
2022-11-17T04:49:04.569Z,-1.21
2022-11-17T04:51:37.274Z,-1.24
2022-11-17T04:54:07.420Z,-1.19
2022-11-17T04:56:36.539Z,-1.18
2022-11-17T04:59:06.154Z,-1.17
2022-11-17T05:01:37.244Z,-1.12
2022-11-17T05:04:07.751Z,-1.10
2022-11-17T05:06:38.844Z,-1.11
2022-11-17T05:09:09.808Z,-1.08
2022-11-17T05:11:55.823Z,-1.11
2022-11-17T05:14:26.233Z,-1.07
2022-11-17T05:17:11.523Z,-1.07
2022-11-17T05:19:42.038Z,-1.04
2022-11-17T05:22:25.507Z,-1.00
2022-11-17T05:24:55.326Z,-0.94
2022-11-17T05:27:25.307Z,-0.89
2022-11-17T05:29:54.909Z,-0.88
2022-11-17T05:32:27.072Z,-0.89
2022-11-17T05:34:56.896Z,-0.84
2022-11-17T05:37:28.543Z,-0.81
2022-11-17T05:39:57.750Z,-0.78
2022-11-17T05:42:27.678Z,-0.71
2022-11-17T05:44:57.911Z,-0.68
2022-11-17T05:47:28.280Z,-0.64
2022-11-17T05:49:57.183Z,-0.60
2022-11-17T05:52:26.340Z,-0.63
2022-11-17T05:54:55.289Z,-0.57
2022-11-17T05:57:27.855Z,-0.57
2022-11-17T05:59:59.795Z,-0.56
2022-11-17T06:02:33.522Z,-0.50
2022-11-17T06:07:51.934Z,-0.45
2022-11-17T06:10:20.856Z,-0.45
2022-11-17T06:12:50.051Z,-0.40
2022-11-17T06:15:18.474Z,-0.38
2022-11-17T06:17:51.176Z,-0.35
2022-11-17T06:20:22.164Z,-0.31
2022-11-17T06:22:52.117Z,-0.31
2022-11-17T06:25:26.227Z,-0.29
2022-11-17T06:27:59.399Z,-0.28
2022-11-17T06:30:28.899Z,-0.26
2022-11-17T06:33:01.649Z,-0.25
2022-11-17T06:35:33.877Z,-0.24
2022-11-17T06:38:03.192Z,-0.23
2022-11-17T06:40:33.800Z,-0.18
2022-11-17T06:43:12.564Z,-0.18
2022-11-17T06:45:43.920Z,-0.18
2022-11-17T06:48:17.477Z,-0.16
2022-11-17T06:50:47.338Z,-0.12
2022-11-17T06:53:16.130Z,-0.05
2022-11-17T06:55:44.934Z,0.03
2022-11-17T06:58:14.704Z,0.09
2022-11-17T07:00:45.235Z,0.15
2022-11-17T07:03:18.585Z,0.19
2022-11-17T07:05:49.061Z,0.21
2022-11-17T07:08:19.838Z,0.21
2022-11-17T07:10:54.853Z,0.23
2022-11-17T07:13:24.709Z,0.26
2022-11-17T07:15:54.404Z,0.31
2022-11-17T07:18:25.215Z,0.36
2022-11-17T07:20:54.670Z,0.38
2022-11-17T07:23:24.661Z,0.45
2022-11-17T07:25:55.110Z,0.42
2022-11-17T07:28:24.447Z,0.42
2022-11-17T07:39:42.193Z,0.42
2022-11-17T07:42:11.869Z,0.54
2022-11-17T07:44:40.785Z,0.43
2022-11-17T07:47:17.495Z,0.49
2022-11-17T07:49:46.878Z,0.43
2022-11-17T07:55:27.726Z,0.18
2022-11-17T07:57:57.162Z,0.16
2022-11-17T08:00:26.354Z,0.19
2022-11-17T08:02:55.501Z,0.23
2022-11-17T08:05:26.024Z,0.10
2022-11-17T08:07:57.327Z,0.11
2022-11-17T08:10:31.325Z,0.27
2022-11-17T08:13:00.934Z,0.38
2022-11-17T08:15:30.070Z,0.44
2022-11-17T08:18:00.252Z,0.40
2022-11-17T08:20:30.102Z,0.47
2022-11-17T08:23:00.957Z,0.51
2022-11-17T08:25:33.082Z,0.53
2022-11-17T08:28:02.253Z,0.50
2022-11-17T08:30:34.279Z,0.52
2022-11-17T08:33:03.754Z,0.32
2022-11-17T08:35:37.322Z,0.25
2022-11-17T08:38:09.724Z,0.22
2022-11-17T08:43:23.531Z,0.13
2022-11-17T08:45:52.539Z,0.19
2022-11-17T08:48:21.931Z,0.27
2022-11-17T08:50:52.628Z,0.44
2022-11-17T08:53:23.603Z,0.54
2022-11-17T08:55:55.902Z,0.63
2022-11-17T08:58:25.314Z,0.72
2022-11-17T09:00:54.572Z,0.78
2022-11-17T09:03:27.180Z,0.71
2022-11-17T09:05:57.511Z,0.49
2022-11-17T09:08:44.939Z,0.20
2022-11-17T09:11:17.208Z,0.04
2022-11-17T09:13:50.058Z,0.11
2022-11-17T09:16:20.741Z,0.04
2022-11-17T09:18:55.762Z,-0.02
2022-11-17T09:21:25.124Z,0.17
2022-11-17T09:23:53.865Z,0.25
2022-11-17T09:26:26.250Z,0.44
2022-11-17T09:28:56.573Z,0.64
2022-11-17T09:31:28.097Z,0.79
2022-11-17T09:34:00.646Z,0.81
2022-11-17T09:36:31.941Z,0.92
2022-11-17T09:39:03.929Z,1.16
2022-11-17T09:41:36.725Z,1.34
2022-11-17T09:44:17.753Z,1.60
2022-11-17T09:47:06.200Z,1.72
2022-11-17T09:49:43.800Z,1.52
2022-11-17T09:52:16.873Z,1.23
2022-11-17T09:54:49.546Z,0.95
2022-11-17T09:57:25.302Z,0.80
2022-11-17T09:59:58.910Z,0.70
2022-11-17T10:02:28.898Z,0.52
2022-11-17T10:04:59.402Z,0.50
2022-11-17T10:07:29.338Z,0.57
2022-11-17T10:09:59.409Z,0.52
2022-11-17T10:12:34.461Z,0.59
2022-11-17T10:15:20.359Z,0.43
2022-11-17T10:17:49.617Z,0.49
2022-11-17T10:20:19.687Z,0.48
2022-11-17T10:22:50.751Z,0.53
2022-11-17T10:25:38.377Z,0.36
2022-11-17T10:28:10.895Z,0.28
2022-11-17T10:30:39.800Z,0.14
2022-11-17T10:33:08.854Z,0.07
2022-11-17T10:35:37.995Z,-0.24
2022-11-17T10:38:08.654Z,-0.28
2022-11-17T10:40:49.614Z,-0.29
2022-11-17T10:43:25.713Z,-0.31
2022-11-17T10:45:56.537Z,-0.25
2022-11-17T10:48:30.142Z,-0.23
2022-11-17T10:51:00.065Z,-0.23
2022-11-17T10:53:39.509Z,-0.28
2022-11-17T10:56:19.115Z,-0.27
2022-11-17T10:59:05.314Z,-0.23
2022-11-17T11:01:35.698Z,-0.26
2022-11-17T11:04:10.375Z,-0.18
2022-11-17T11:06:39.181Z,-0.17
2022-11-17T11:09:12.537Z,-0.14
2022-11-17T11:11:46.120Z,-0.24
2022-11-17T11:14:27.717Z,-0.31
2022-11-17T11:16:57.610Z,-0.33
2022-11-17T11:19:26.796Z,-0.34
2022-11-17T11:22:07.648Z,-0.31
2022-11-17T11:24:40.580Z,-0.36
2022-11-17T11:27:24.920Z,-0.41
2022-11-17T11:30:00.988Z,-0.49
2022-11-17T11:32:38.189Z,-0.47
2022-11-17T11:35:28.124Z,-0.65
2022-11-17T11:38:03.057Z,-0.62
2022-11-17T11:40:34.490Z,-0.59
2022-11-17T11:43:07.202Z,-0.54
2022-11-17T11:45:47.764Z,-0.53
2022-11-17T11:48:22.022Z,-0.50
2022-11-17T11:50:55.614Z,-0.55
2022-11-17T11:53:31.401Z,-0.60
2022-11-17T11:56:07.256Z,-0.59
2022-11-17T11:58:36.480Z,-0.53
2022-11-17T12:01:08.750Z,-0.54
2022-11-17T12:03:43.761Z,-0.59
2022-11-17T12:06:36.316Z,-0.78
2022-11-17T12:09:12.806Z,-0.75
2022-11-17T12:11:59.972Z,-0.84
2022-11-17T12:14:29.607Z,-0.78
2022-11-17T12:17:09.742Z,-0.75
2022-11-17T12:19:51.243Z,-0.78
2022-11-17T12:22:26.840Z,-0.79
2022-11-17T12:24:59.536Z,-0.80
2022-11-17T12:27:45.302Z,-0.82
2022-11-17T12:30:34.946Z,-0.84
2022-11-17T12:33:09.044Z,-0.92
2022-11-17T12:35:38.960Z,-0.96
2022-11-17T12:38:27.182Z,-1.11
2022-11-17T12:40:56.278Z,-1.08
2022-11-17T12:43:25.824Z,-1.13
2022-11-17T12:46:02.402Z,-1.20
2022-11-17T12:48:39.366Z,-1.23
2022-11-17T12:51:13.564Z,-1.35
2022-11-17T12:53:58.886Z,-1.50
2022-11-17T12:56:41.903Z,-1.62
2022-11-17T12:59:23.891Z,-1.68
2022-11-17T13:01:58.901Z,-1.73
2022-11-17T13:04:34.753Z,-1.78
2022-11-17T13:07:06.113Z,-1.79
2022-11-17T13:09:38.636Z,-1.86
2022-11-17T13:12:09.188Z,-2.00
2022-11-17T13:14:43.666Z,-1.93
2022-11-17T13:17:14.179Z,-1.95
2022-11-17T13:19:47.654Z,-2.03
2022-11-17T13:22:18.826Z,-2.22
2022-11-17T13:24:49.379Z,-2.32
2022-11-17T13:27:23.280Z,-2.25
2022-11-17T13:29:52.528Z,-2.38
2022-11-17T13:32:24.767Z,-2.48
2022-11-17T13:34:58.003Z,-2.34
2022-11-17T13:37:29.019Z,-2.44
2022-11-17T13:39:59.723Z,-2.42
2022-11-17T13:42:30.504Z,-2.43
2022-11-17T13:45:01.157Z,-2.37
2022-11-17T13:47:50.253Z,-2.42
2022-11-17T13:50:40.933Z,-2.46
2022-11-17T13:53:28.070Z,-2.56
2022-11-17T13:55:56.865Z,-2.59
2022-11-17T13:58:29.744Z,-2.65
2022-11-17T14:01:00.150Z,-2.76
2022-11-17T14:03:36.909Z,-2.82
2022-11-17T14:06:06.861Z,-2.84
2022-11-17T14:08:37.713Z,-2.85
2022-11-17T14:11:09.159Z,-2.93
2022-11-17T14:13:41.536Z,-3.07
2022-11-17T14:16:26.665Z,-3.26
2022-11-17T14:19:00.608Z,-3.29
2022-11-17T14:24:26.647Z,-3.55
2022-11-17T14:26:55.995Z,-3.68
2022-11-17T14:29:25.308Z,-3.64
2022-11-17T14:32:04.014Z,-3.71
2022-11-17T14:34:33.092Z,-3.73
2022-11-17T14:37:05.818Z,-3.73
2022-11-17T14:39:39.294Z,-3.86
2022-11-17T14:42:09.029Z,-3.87
2022-11-17T14:44:38.998Z,-3.96
2022-11-17T14:47:37.672Z,-3.93
2022-11-17T14:50:07.084Z,-3.97
2022-11-17T14:52:40.011Z,-4.06
2022-11-17T14:55:11.184Z,-4.12
2022-11-17T14:57:41.884Z,-4.12
2022-11-17T15:00:19.932Z,-4.23
2022-11-17T15:02:51.453Z,-4.21
2022-11-17T15:05:20.210Z,-4.29
2022-11-17T15:07:49.371Z,-4.35
2022-11-17T15:10:20.533Z,-4.50
2022-11-17T15:12:49.824Z,-4.54
2022-11-17T15:15:19.767Z,-4.55
2022-11-17T15:17:48.486Z,-4.54
2022-11-17T15:20:17.241Z,-4.50
2022-11-17T15:22:46.119Z,-4.59
2022-11-17T15:25:15.857Z,-4.63
2022-11-17T15:27:46.412Z,-4.76
2022-11-17T15:30:15.937Z,-4.74
2022-11-17T15:38:51.023Z,-4.83
2022-11-17T15:41:20.394Z,-4.82
2022-11-17T15:43:50.804Z,-4.86
2022-11-17T15:52:30.077Z,-4.60
2022-11-17T15:55:07.624Z,-4.41
2022-11-17T15:57:37.514Z,-4.37
2022-11-17T16:00:12.276Z,-4.26
2022-11-17T16:02:45.491Z,-4.15
2022-11-17T16:05:14.567Z,-4.15
2022-11-17T16:07:47.796Z,-4.08
2022-11-17T16:10:18.824Z,-4.02
2022-11-17T16:12:49.738Z,-3.93
2022-11-17T16:15:22.744Z,-3.94
2022-11-17T16:17:57.748Z,-3.89
2022-11-17T16:20:27.561Z,-4.01
2022-11-17T16:22:58.298Z,-3.93
2022-11-17T16:25:27.898Z,-3.88
2022-11-17T16:28:00.606Z,-3.93
2022-11-17T16:30:35.632Z,-3.92
2022-11-17T16:33:06.160Z,-3.89
2022-11-17T16:35:36.058Z,-3.86
2022-11-17T16:38:05.760Z,-3.91
2022-11-17T16:40:38.140Z,-3.98
2022-11-17T16:43:07.467Z,-3.97
2022-11-17T16:45:43.307Z,-4.05
2022-11-17T16:48:13.897Z,-4.10
2022-11-17T16:50:43.792Z,-4.10
2022-11-17T16:53:13.145Z,-4.04
2022-11-17T16:55:43.029Z,-4.09
2022-11-17T16:58:13.317Z,-4.14
2022-11-17T17:00:45.176Z,-4.19
2022-11-17T17:03:14.304Z,-4.16
2022-11-17T17:05:44.117Z,-4.10
2022-11-17T17:08:16.749Z,-4.16
2022-11-17T17:10:47.474Z,-4.10
2022-11-17T17:13:18.128Z,-4.11
2022-11-17T17:15:50.023Z,-4.09
2022-11-17T17:18:19.991Z,-4.13
2022-11-17T17:20:53.518Z,-4.03
2022-11-17T17:23:23.074Z,-4.12
2022-11-17T17:25:52.430Z,-4.18
2022-11-17T17:28:23.100Z,-4.16
2022-11-17T17:30:57.267Z,-4.12
2022-11-17T17:33:27.433Z,-4.18
2022-11-17T17:35:58.421Z,-4.30
2022-11-17T17:38:27.974Z,-4.25
2022-11-17T17:40:57.464Z,-4.32
2022-11-17T17:43:25.867Z,-4.25
2022-11-17T17:46:00.159Z,-4.16
2022-11-17T17:48:31.875Z,-4.10
2022-11-17T17:51:05.209Z,-4.10
2022-11-17T17:53:35.033Z,-4.10
2022-11-17T17:56:04.214Z,-4.14
2022-11-17T17:58:40.694Z,-4.07
2022-11-17T18:01:19.056Z,-4.04
2022-11-17T18:03:48.690Z,-4.03
2022-11-17T18:06:18.714Z,-3.99
2022-11-17T18:08:48.520Z,-4.04
2022-11-17T18:11:18.811Z,-3.94
2022-11-17T18:13:50.516Z,-4.03
2022-11-17T18:16:24.386Z,-4.03
2022-11-17T18:18:57.616Z,-4.03
2022-11-17T18:21:26.208Z,-4.09
2022-11-17T18:24:03.180Z,-4.09
2022-11-17T18:26:34.863Z,-4.12
2022-11-17T18:29:04.262Z,-4.16
2022-11-17T18:31:36.160Z,-4.14
2022-11-17T18:34:05.363Z,-4.18
2022-11-17T18:36:34.937Z,-4.14
2022-11-17T18:39:04.012Z,-4.26
2022-11-17T18:41:34.453Z,-4.15
2022-11-17T18:44:03.816Z,-4.05
2022-11-17T18:46:34.582Z,-3.95
2022-11-17T18:49:03.562Z,-3.98
2022-11-17T18:51:32.923Z,-3.90
2022-11-17T18:54:02.707Z,-3.92
2022-11-17T18:56:34.422Z,-4.00
2022-11-17T18:59:03.482Z,-4.05
2022-11-17T19:01:33.758Z,-3.97
2022-11-17T19:04:04.189Z,-4.19
2022-11-17T19:06:33.249Z,-4.19
2022-11-17T19:09:01.976Z,-4.20
2022-11-17T19:11:33.413Z,-4.10
2022-11-17T19:14:06.572Z,-4.11
2022-11-17T19:16:44.067Z,-4.22
2022-11-17T19:19:15.734Z,-4.32
2022-11-17T19:21:45.341Z,-4.30
2022-11-17T19:24:15.553Z,-4.41
2022-11-17T19:26:44.030Z,-4.41
2022-11-17T19:29:17.157Z,-4.64
2022-11-17T19:31:47.255Z,-4.55
2022-11-17T19:34:18.014Z,-4.53
2022-11-17T19:36:47.206Z,-4.53
2022-11-17T19:39:17.491Z,-4.66
2022-11-17T19:41:48.668Z,-4.60
2022-11-17T19:44:17.466Z,-4.56
2022-11-17T19:46:45.757Z,-4.67
2022-11-17T19:49:14.826Z,-4.68
2022-11-17T19:51:45.405Z,-4.55
2022-11-17T19:54:14.768Z,-4.55
2022-11-17T19:56:43.601Z,-4.53
2022-11-17T19:59:16.094Z,-4.57
2022-11-17T20:01:45.367Z,-4.55
2022-11-17T20:04:13.832Z,-4.64
2022-11-17T20:06:42.602Z,-4.70
2022-11-17T20:09:20.079Z,-4.73
2022-11-17T20:11:49.321Z,-4.77
2022-11-17T20:14:18.760Z,-4.81
2022-11-17T20:16:47.531Z,-4.70
2022-11-17T20:19:16.490Z,-4.74
2022-11-17T20:21:45.481Z,-4.70
2022-11-17T20:24:15.368Z,-4.68
2022-11-17T20:26:45.060Z,-4.63
2022-11-17T20:29:14.478Z,-4.68
2022-11-17T20:31:44.498Z,-4.65
2022-11-17T20:34:14.607Z,-4.72
2022-11-17T20:36:43.696Z,-4.71
2022-11-17T20:39:12.557Z,-4.77
2022-11-17T20:41:43.158Z,-4.73
2022-11-17T20:44:24.403Z,-4.68
2022-11-17T20:46:53.487Z,-4.61
2022-11-17T20:49:22.159Z,-4.61
2022-11-17T20:51:50.709Z,-4.53
2022-11-17T20:54:19.975Z,-4.54
2022-11-17T20:56:51.015Z,-4.65
2022-11-17T20:59:20.577Z,-4.58
2022-11-17T21:01:49.810Z,-4.63
2022-11-17T21:04:18.216Z,-4.52
2022-11-17T21:06:46.809Z,-4.60
2022-11-17T21:09:16.263Z,-4.69
2022-11-17T21:11:50.735Z,-4.70
2022-11-17T21:14:33.495Z,-4.67
2022-11-17T21:17:03.810Z,-4.51
2022-11-17T21:19:40.950Z,-4.65
2022-11-17T21:22:35.266Z,-4.56
2022-11-17T21:25:05.120Z,-4.67
2022-11-17T21:27:34.661Z,-4.77
2022-11-17T21:30:03.171Z,-4.65
2022-11-17T21:32:35.767Z,-4.78
2022-11-17T21:35:06.097Z,-4.67
2022-11-17T21:37:35.362Z,-4.59
2022-11-17T21:40:04.938Z,-4.57
2022-11-17T21:42:35.395Z,-4.55
2022-11-17T21:45:09.536Z,-4.57
2022-11-17T21:47:43.673Z,-4.55
2022-11-17T21:50:12.596Z,-4.54
2022-11-17T21:52:40.957Z,-4.68
2022-11-17T21:55:10.422Z,-4.65
2022-11-17T21:57:39.246Z,-4.77
2022-11-17T22:00:10.766Z,-4.79
2022-11-17T22:02:42.272Z,-4.66
2022-11-17T22:05:11.412Z,-4.66
2022-11-17T22:07:39.916Z,-4.74
2022-11-17T22:10:09.456Z,-4.68
2022-11-17T22:12:38.320Z,-4.68
2022-11-17T22:15:11.432Z,-4.74
2022-11-17T22:17:44.034Z,-4.80
2022-11-17T22:20:13.884Z,-4.86
2022-11-17T22:22:54.352Z,-4.80
2022-11-17T22:28:16.005Z,-4.67
2022-11-17T22:30:49.546Z,-4.60
2022-11-17T22:33:23.592Z,-4.59
2022-11-17T22:35:52.242Z,-4.58
2022-11-17T22:38:24.953Z,-4.69
2022-11-17T22:40:57.268Z,-4.64
2022-11-17T22:43:25.991Z,-4.57
2022-11-17T22:45:54.697Z,-4.55
2022-11-17T22:48:24.614Z,-4.58
2022-11-17T22:50:53.538Z,-4.64
2022-11-17T22:53:21.750Z,-4.67
2022-11-17T22:55:51.579Z,-4.55
2022-11-17T22:58:23.818Z,-4.60
2022-11-17T23:00:54.004Z,-4.60
2022-11-17T23:03:24.983Z,-4.64
2022-11-17T23:05:53.831Z,-4.71
2022-11-17T23:08:22.412Z,-4.66
2022-11-17T23:11:03.870Z,-4.56
2022-11-17T23:13:39.340Z,-4.64
2022-11-17T23:16:08.926Z,-4.66
2022-11-17T23:18:39.431Z,-4.66
2022-11-17T23:21:08.658Z,-4.64
2022-11-17T23:23:38.414Z,-4.65
2022-11-17T23:26:08.004Z,-4.70
2022-11-17T23:28:38.091Z,-4.69
2022-11-17T23:31:08.164Z,-4.58
2022-11-17T23:33:37.661Z,-4.57
2022-11-17T23:36:09.105Z,-4.61
2022-11-17T23:38:37.878Z,-4.70
2022-11-17T23:41:07.566Z,-4.78
2022-11-17T23:43:36.463Z,-4.67
2022-11-17T23:46:06.496Z,-4.69
2022-11-17T23:48:35.047Z,-4.80
2022-11-17T23:51:09.889Z,-4.80
2022-11-17T23:53:39.210Z,-4.70
2022-11-17T23:56:08.887Z,-4.71
2022-11-17T23:58:37.378Z,-4.72
